• Join FlightAware (Why Join?)
  • Login
  • US Flag 
12:17PM EDT


 

Airport Tracker/Info


-or-


 

Live Flight TrackerFlight Track Log ✈ N3726K ✈ 11-Nov-2013 ✈ KFSD - KRNH

Flight Track Log - Related Links

Times and Time Zones

All times are in EST time to prevent confusion due to time zone crossing. See the N3726K flight status page for this flight to view local times or setup timezone preferences in your user account.

Time Position Orientation Groundspeed Altitude Reporting Facility
EST Latitude Longitude Course Direction KTS MPH feet Rate Location/Type
03:07PM 43.6517 -96.7167 62° Northeast 118 136 5,600  Level Minneapolis Center
03:08PM 43.6753 -96.6819 47° Northeast 120 138 6,700 1,020 Climbing Minneapolis Center
03:09PM 43.6936 -96.6397 59° Northeast 123 142 7,700 900 Climbing Minneapolis Center
03:10PM 43.7103 -96.5903 65° Northeast 131 151 8,600 600 Climbing Minneapolis Center
03:11PM 43.7309 -96.3686 63° Northeast  Level Estimated
03:11PM 43.7292 -96.5406 62° Northeast 139 160 9,000  Level Minneapolis Center
03:12PM 43.7546 -96.3055 62° Northeast  Level FlightAware Approximate
03:12PM 43.7572 -96.4650 63° Northeast 164 189 9,000  Level Minneapolis Center
03:13PM 43.7814 -96.4008 62° Northeast 179 206 9,000  Level Minneapolis Center
03:14PM 43.8067 -96.3358 62° Northeast 186 214 9,000  Level Minneapolis Center
03:15PM 43.8306 -96.2719 63° Northeast 189 217 9,000  Level Minneapolis Center
03:16PM 43.8550 -96.2078 62° Northeast 189 217 9,000  Level Minneapolis Center
03:17PM 43.8797 -96.1436 62° Northeast 189 217 9,000  Level Minneapolis Center
03:18PM 43.9086 -96.0656 63° Northeast 190 219 9,000  Level Minneapolis Center
03:19PM 43.9325 -95.9997 63° Northeast 191 220 9,000  Level Minneapolis Center
03:20PM 43.9575 -95.9342 62° Northeast 193 222 9,000  Level Minneapolis Center
03:21PM 43.9825 -95.8692 62° Northeast 193 222 9,000  Level Minneapolis Center
03:22PM 44.0067 -95.8036 63° Northeast 192 221 9,000  Level Minneapolis Center
03:23PM 44.0314 -95.7386 62° Northeast 192 221 9,000  Level Minneapolis Center
03:24PM 44.0556 -95.6714 63° Northeast 194 223 9,000  Level Minneapolis Center
03:25PM 44.0853 -95.5928 62° Northeast 193 222 9,000  Level Minneapolis Center
03:26PM 44.1089 -95.5261 64° Northeast 194 223 9,000  Level Minneapolis Center
03:27PM 44.1336 -95.4617 62° Northeast 191 220 9,000  Level Minneapolis Center
03:28PM 44.1578 -95.3956 63° Northeast 192 221 9,000  Level Minneapolis Center
03:29PM 44.1822 -95.3294 63° Northeast 193 222 9,000  Level Minneapolis Center
03:30PM 44.2053 -95.2639 64° Northeast 191 220 9,000  Level Minneapolis Center
03:31PM 44.2283 -95.1986 64° Northeast 189 217 9,000  Level Minneapolis Center
03:32PM 44.2578 -95.1211 62° Northeast 189 217 9,000  Level Minneapolis Center
03:33PM 44.2814 -95.0556 63° Northeast 189 217 9,000  Level Minneapolis Center
03:34PM 44.3042 -94.9911 64° Northeast 188 216 9,000  Level Minneapolis Center
03:35PM 44.3281 -94.9258 63° Northeast 188 216 9,000  Level Minneapolis Center
03:36PM 44.3519 -94.8611 63° Northeast 189 217 9,000  Level Minneapolis Center
03:37PM 44.3753 -94.7964 63° Northeast 188 216 9,000  Level Minneapolis Center
03:38PM 44.3986 -94.7306 64° Northeast 189 217 9,000  Level Minneapolis Center
03:39PM 44.4211 -94.6658 64° Northeast 186 214 9,000  Level Minneapolis Center
03:41PM 44.4475 -94.5958 62° Northeast 188 216 9,000  Level Minneapolis Center
03:42PM 44.4703 -94.5300 64° Northeast 188 216 9,000  Level Minneapolis Center
03:43PM 44.4928 -94.4639 64° Northeast 187 215 9,000  Level Minneapolis Center
03:44PM 44.5167 -94.3983 63° Northeast 188 216 9,000  Level Minneapolis Center
03:45PM 44.5433 -94.3200 64° Northeast 185 213 9,000  Level Minneapolis Center
03:46PM 44.5656 -94.2536 65° Northeast 186 214 9,100  Climbing Minneapolis Center
03:47PM 44.5892 -94.1894 63° Northeast 185 213 9,100  Level Minneapolis Center
03:48PM 44.6119 -94.1231 64° Northeast 187 215 9,100  Level Minneapolis Center
03:49PM 44.6347 -94.0569 64° Northeast 187 215 9,100  Level Minneapolis Center
03:50PM 44.6578 -93.9903 64° Northeast 191 220 9,100  Level Minneapolis Center
03:51PM 44.6811 -93.9239 64° Northeast 192 221 9,100 -60 Level Minneapolis Center
03:52PM 44.7036 -93.8581 64° Northeast 190 219 9,000 -60 Descending Minneapolis Center
03:53PM 44.7311 -93.7789 64° Northeast 190 219 9,000  Level Minneapolis Center
03:54PM 44.7536 -93.7125 64° Northeast 190 219 9,000  Level Minneapolis Center
03:55PM 44.7764 -93.6458 64° Northeast 189 217 9,000  Level Minneapolis Center
03:56PM 44.7992 -93.5797 64° Northeast 188 216 9,000  Level Minneapolis Center
03:57PM 44.8219 -93.5125 64° Northeast 189 217 9,000  Level Minneapolis Center
03:58PM 44.8453 -93.4447 64° Northeast 190 219 9,000 -240 Level Minneapolis Center
03:59PM 44.8686 -93.3764 64° Northeast 191 220 8,600 -540 Descending Minneapolis Center
04:00PM 44.8928 -93.3047 65° Northeast 200 230 8,000 -300 Descending Minneapolis Center
04:01PM 44.9153 -93.2381 64° Northeast 189 217 8,000 -120 Level Minneapolis Center
04:02PM 44.9372 -93.1739 64° Northeast 181 208 7,800 -540 Descending Minneapolis Center
04:03PM 44.9633 -93.0947 65° Northeast 185 213 6,900 -900 Descending Minneapolis Center
04:04PM 44.9853 -93.0289 65° Northeast 184 212 6,000 -960 Descending Minneapolis Center
04:05PM 45.0069 -92.9642 65° Northeast 183 211 5,000 -960 Descending Minneapolis Center
04:06PM 45.0289 -92.8978 65° Northeast 185 213 4,100 -540 Descending Minneapolis Center
04:07PM 45.0497 -92.8353 65° Northeast 176 203 4,000 -60 Descending Minneapolis Center
04:08PM 45.0678 -92.7817 64° Northeast 154 177 4,000  Level Minneapolis Center
04:09PM 45.0869 -92.7211 66° East 151 174 4,000  Level Minneapolis Center
04:11PM 45.1093 -92.6388 69° East  Level FlightAware Approximate
04:18PM 45.1333 -92.5333 90° East  Level FlightAware Approximate
04:19PM 45.1478 -92.5392 90° East  Level Estimated
04:20PM 45.1478 -92.5392 90° East  Level Estimated
04:21PM 45.1478 -92.5392 90° East  Level Estimated
04:22PM 45.1478 -92.5392 90° East  Level Estimated